Time;durP1;ratioP1;P1;durP2;ratioP2;P2;SDS_P1;SDS_P2;PMS_P1;PMS_P2;Temp;Humidity;BMP_temperature;BMP_pressure;BME280_temperature;BME280_humidity;BME280_pressure;Samples;Min_cycle;Max_cycle;Signal;HPM_P1;HPM_P2
2023/10/24 00:01:36;;;;;;;6.75;4.25;;;;;;;10.52;100.00;96395.19;5054287;28;20047;-64
2023/10/24 00:04:03;;;;;;;7.93;4.50;;;;;;;10.57;100.00;96380.81;5050505;28;20510;-64
2023/10/24 00:06:30;;;;;;;11.77;4.78;;;;;;;10.63;100.00;96368.06;5053451;28;20045;-65
2023/10/24 00:08:56;;;;;;;7.18;4.60;;;;;;;10.53;100.00;96374.31;5044762;28;20049;-65
2023/10/24 00:11:23;;;;;;;7.47;5.03;;;;;;;10.54;100.00;96370.53;5042093;28;20053;-65
2023/10/24 00:13:49;;;;;;;11.30;4.57;;;;;;;10.54;100.00;96368.63;5043714;28;20685;-64
2023/10/24 00:16:16;;;;;;;7.82;4.15;;;;;;;10.51;100.00;96371.09;5046258;28;20047;-65
2023/10/24 00:18:42;;;;;;;6.60;4.40;;;;;;;10.43;100.00;96367.00;5040795;28;20053;-64
2023/10/24 00:21:09;;;;;;;7.45;4.90;;;;;;;10.40;100.00;96381.91;5053367;28;20044;-64
2023/10/24 00:23:36;;;;;;;8.10;5.25;;;;;;;10.28;100.00;96375.97;5042077;28;20056;-65
2023/10/24 00:26:02;;;;;;;7.63;4.38;;;;;;;10.39;100.00;96377.59;5047557;28;20040;-64
2023/10/24 00:28:29;;;;;;;7.63;4.38;;;;;;;10.41;100.00;96374.59;5054270;28;20048;-64
2023/10/24 00:30:56;;;;;;;7.88;4.72;;;;;;;10.44;100.00;96389.47;5050185;28;20037;-64
2023/10/24 00:33:22;;;;;;;8.23;4.43;;;;;;;10.37;100.00;96396.00;5047131;28;20118;-64
2023/10/24 00:35:49;;;;;;;10.90;5.00;;;;;;;10.36;100.00;96407.09;5041086;28;20041;-64
2023/10/24 00:38:15;;;;;;;8.95;5.13;;;;;;;10.35;100.00;96402.75;5036443;28;20094;-64
2023/10/24 00:40:42;;;;;;;6.72;4.03;;;;;;;10.34;100.00;96406.53;5045005;28;20124;-65
2023/10/24 00:43:09;;;;;;;9.05;5.43;;;;;;;10.32;100.00;96406.03;5046594;28;20052;-66
2023/10/24 00:45:36;;;;;;;8.05;4.55;;;;;;;10.34;100.00;96398.44;5042948;28;20048;-65
2023/10/24 00:48:05;;;;;;;11.05;4.32;;;;;;;10.37;100.00;96406.00;5043797;28;20041;-65
2023/10/24 00:50:32;;;;;;;8.93;4.53;;;;;;;10.41;100.00;96397.06;5049175;28;20124;-65
2023/10/24 00:53:00;;;;;;;7.70;4.45;;;;;;;10.48;100.00;96402.22;5044623;28;20041;-64
2023/10/24 00:55:28;;;;;;;8.20;5.40;;;;;;;10.43;100.00;96388.66;5049910;28;20680;-66
2023/10/24 00:57:55;;;;;;;9.23;4.20;;;;;;;10.49;100.00;96376.78;5052338;28;20041;-64
2023/10/24 01:00:24;;;;;;;7.90;4.35;;;;;;;10.45;100.00;96375.72;5046635;28;20063;-65
2023/10/24 01:02:52;;;;;;;10.90;4.95;;;;;;;10.38;100.00;96377.84;5047596;28;20048;-65
2023/10/24 01:05:18;;;;;;;7.93;4.43;;;;;;;10.40;100.00;96376.50;5044924;28;20045;-66
2023/10/24 01:07:45;;;;;;;8.23;4.68;;;;;;;10.43;100.00;96379.75;5042593;28;20040;-64
2023/10/24 01:10:12;;;;;;;6.20;4.50;;;;;;;10.36;100.00;96366.50;5037923;28;20069;-64
2023/10/24 01:12:39;;;;;;;6.57;4.70;;;;;;;10.41;100.00;96369.19;5037816;28;20107;-65
2023/10/24 01:15:06;;;;;;;7.97;4.85;;;;;;;10.46;100.00;96363.00;5041891;28;20116;-65
2023/10/24 01:17:33;;;;;;;7.45;4.70;;;;;;;10.47;100.00;96365.41;5041397;28;20048;-66
2023/10/24 01:19:59;;;;;;;8.50;4.60;;;;;;;10.51;100.00;96358.34;5043075;28;20048;-65
2023/10/24 01:22:26;;;;;;;8.80;4.97;;;;;;;10.48;100.00;96355.41;5053559;28;20040;-65
2023/10/24 01:24:53;;;;;;;8.60;4.40;;;;;;;10.47;100.00;96349.16;5041572;28;20115;-67
2023/10/24 01:27:22;;;;;;;9.60;4.65;;;;;;;10.31;100.00;96359.22;5052176;28;20099;-65
2023/10/24 01:29:49;;;;;;;7.35;4.85;;;;;;;10.26;100.00;96365.47;5047311;28;20504;-65
2023/10/24 01:32:15;;;;;;;9.73;5.07;;;;;;;10.28;100.00;96355.16;5047457;28;20106;-65
2023/10/24 01:34:42;;;;;;;6.88;4.45;;;;;;;10.30;100.00;96357.59;5041777;28;20037;-65
2023/10/24 01:37:09;;;;;;;9.88;5.25;;;;;;;10.39;100.00;96363.22;5043387;28;20043;-64
2023/10/24 01:39:36;;;;;;;10.00;5.05;;;;;;;10.47;100.00;96357.28;5052038;28;20045;-65
2023/10/24 01:42:02;;;;;;;11.15;4.72;;;;;;;10.43;100.00;96353.47;5051542;28;20102;-66
2023/10/24 01:44:29;;;;;;;8.40;5.40;;;;;;;10.42;100.00;96354.56;5048428;28;20544;-65
2023/10/24 01:46:55;;;;;;;7.63;4.90;;;;;;;10.42;100.00;96351.88;5055319;28;20049;-66
2023/10/24 01:49:22;;;;;;;9.35;5.10;;;;;;;10.37;100.00;96350.00;5041225;28;20703;-65
2023/10/24 01:51:49;;;;;;;6.35;4.55;;;;;;;10.34;100.00;96349.72;5051965;28;20037;-66
2023/10/24 01:54:15;;;;;;;11.73;4.88;;;;;;;10.33;100.00;96350.81;5041564;28;20037;-65
2023/10/24 01:56:42;;;;;;;5.90;4.45;;;;;;;10.36;100.00;96332.13;5037503;28;20755;-65
2023/10/24 01:59:09;;;;;;;8.93;5.18;;;;;;;10.25;100.00;96339.47;5061829;28;20415;-66
2023/10/24 02:01:35;;;;;;;6.68;4.75;;;;;;;10.29;100.00;96358.69;5055557;28;20132;-65
2023/10/24 02:04:02;;;;;;;7.07;4.30;;;;;;;10.30;100.00;96362.19;5048168;28;20037;-65
2023/10/24 02:06:29;;;;;;;8.38;4.80;;;;;;;10.30;100.00;96354.06;5063210;28;20051;-67
2023/10/24 02:08:55;;;;;;;6.35;3.97;;;;;;;10.37;100.00;96373.53;5050007;28;20115;-65
2023/10/24 02:11:22;;;;;;;7.95;4.80;;;;;;;10.46;100.00;96352.19;5043238;28;20137;-65
2023/10/24 02:13:49;;;;;;;8.07;4.25;;;;;;;10.51;100.00;96377.28;5043306;28;20044;-66
2023/10/24 02:16:15;;;;;;;7.45;4.28;;;;;;;10.59;100.00;96375.94;5049547;28;20051;-65
2023/10/24 02:18:42;;;;;;;6.43;3.92;;;;;;;10.59;100.00;96357.00;5047585;28;20072;-66
2023/10/24 02:21:09;;;;;;;7.85;4.47;;;;;;;10.63;100.00;96341.81;5046342;28;20040;-65
2023/10/24 02:23:37;;;;;;;7.03;4.05;;;;;;;10.60;100.00;96338.84;5049281;28;20074;-65
2023/10/24 02:26:03;;;;;;;8.30;3.90;;;;;;;10.55;100.00;96331.56;5046040;28;20052;-64
2023/10/24 02:28:31;;;;;;;6.28;4.07;;;;;;;10.70;100.00;96325.25;5046272;28;20575;-65
2023/10/24 02:31:01;;;;;;;8.05;3.40;;;;;;;10.85;100.00;96315.44;5053545;28;20071;-65
2023/10/24 02:33:27;;;;;;;7.00;3.70;;;;;;;10.72;100.00;96333.91;5046131;28;20039;-65
2023/10/24 02:35:54;;;;;;;6.18;3.58;;;;;;;10.68;100.00;96334.75;5046005;28;20045;-64
2023/10/24 02:38:21;;;;;;;7.13;3.60;;;;;;;10.67;100.00;96339.34;5043096;28;20037;-65
2023/10/24 02:40:51;;;;;;;5.85;3.35;;;;;;;10.66;100.00;96325.00;5050722;28;20032;-66
2023/10/24 02:43:18;;;;;;;8.38;2.90;;;;;;;10.64;100.00;96332.59;5046598;28;20061;-64
2023/10/24 02:45:45;;;;;;;5.90;3.00;;;;;;;10.66;100.00;96335.03;5045266;28;20048;-65
2023/10/24 02:48:12;;;;;;;7.80;3.35;;;;;;;10.71;100.00;96328.75;5049412;28;20037;-65
2023/10/24 02:50:42;;;;;;;5.47;2.90;;;;;;;10.72;100.00;96322.28;5048005;28;20183;-65
2023/10/24 02:53:09;;;;;;;6.55;2.60;;;;;;;10.75;100.00;96321.72;5045998;28;20090;-65
2023/10/24 02:55:35;;;;;;;4.38;2.38;;;;;;;10.88;100.00;96333.84;5053391;28;20119;-65
2023/10/24 02:58:02;;;;;;;6.43;2.20;;;;;;;10.98;100.00;96344.59;5045241;28;20423;-64
2023/10/24 03:00:29;;;;;;;3.75;2.10;;;;;;;11.33;100.00;96347.38;5050652;28;20448;-64
2023/10/24 03:02:56;;;;;;;4.47;2.00;;;;;;;11.52;100.00;96354.81;5046409;28;20060;-65
2023/10/24 03:05:22;;;;;;;6.03;2.10;;;;;;;11.54;100.00;96352.63;5045086;28;20037;-64
2023/10/24 03:07:49;;;;;;;4.57;1.88;;;;;;;11.56;100.00;96342.31;5046018;28;20059;-65
2023/10/24 03:10:15;;;;;;;4.47;2.50;;;;;;;11.56;100.00;96345.84;5047987;28;20045;-66
2023/10/24 03:12:42;;;;;;;4.15;1.95;;;;;;;11.42;100.00;96363.81;5047737;28;20045;-65
2023/10/24 03:15:09;;;;;;;3.95;2.03;;;;;;;11.34;100.00;96369.84;5037378;28;20135;-64
2023/10/24 03:17:35;;;;;;;5.70;2.25;;;;;;;11.40;100.00;96374.97;5042525;28;20037;-66
2023/10/24 03:20:04;;;;;;;4.68;2.00;;;;;;;11.44;100.00;96364.34;5049106;28;20048;-65
2023/10/24 03:22:31;;;;;;;4.47;1.70;;;;;;;11.51;100.00;96356.72;5050823;28;20071;-65
2023/10/24 03:24:57;;;;;;;3.63;1.80;;;;;;;11.52;100.00;96355.63;5050362;28;20048;-64
2023/10/24 03:27:24;;;;;;;5.35;2.45;;;;;;;11.36;100.00;96354.94;5050195;28;20078;-65
2023/10/24 03:29:50;;;;;;;6.68;2.42;;;;;;;11.34;100.00;96359.00;5045836;28;20408;-65
2023/10/24 03:32:17;;;;;;;6.78;2.45;;;;;;;11.42;100.00;96352.97;5044202;28;20103;-65
2023/10/24 03:34:43;;;;;;;5.15;2.00;;;;;;;11.44;100.00;96361.66;5046788;28;20087;-64
2023/10/24 03:37:10;;;;;;;5.38;2.10;;;;;;;11.43;100.00;96349.19;5051300;28;20072;-66
2023/10/24 03:39:37;;;;;;;5.60;2.25;;;;;;;11.37;100.00;96353.03;5050391;28;20041;-65
2023/10/24 03:42:03;;;;;;;4.15;1.92;;;;;;;11.40;100.00;96360.59;5051629;28;20048;-65
2023/10/24 03:44:30;;;;;;;5.25;2.35;;;;;;;11.32;100.00;96348.47;5053142;28;20037;-65
2023/10/24 03:46:56;;;;;;;4.63;2.22;;;;;;;11.28;100.00;96355.53;5053221;28;20415;-65
2023/10/24 03:49:23;;;;;;;4.45;2.22;;;;;;;11.26;100.00;96342.25;5047074;28;20045;-66
2023/10/24 03:51:50;;;;;;;5.55;2.22;;;;;;;11.08;100.00;96345.63;5046021;28;20041;-65
2023/10/24 03:54:16;;;;;;;3.78;2.35;;;;;;;10.99;100.00;96332.66;5049105;28;20200;-65
2023/10/24 03:56:44;;;;;;;4.68;2.67;;;;;;;10.92;100.00;96318.66;5043490;28;20114;-65
2023/10/24 03:59:10;;;;;;;5.20;2.50;;;;;;;10.87;100.00;96315.97;5048363;28;20057;-64
2023/10/24 04:01:38;;;;;;;3.33;1.80;;;;;;;10.83;100.00;96309.50;5046113;28;20037;-65
2023/10/24 04:04:05;;;;;;;3.80;2.15;;;;;;;10.78;100.00;96303.03;5040845;28;20045;-65
2023/10/24 04:06:34;;;;;;;5.15;2.90;;;;;;;10.63;100.00;96289.56;5048046;28;20039;-64
2023/10/24 04:09:04;;;;;;;5.07;2.10;;;;;;;10.60;100.00;96282.00;5041879;28;20045;-64
2023/10/24 04:11:32;;;;;;;6.07;2.90;;;;;;;10.50;100.00;96282.84;5046841;28;20059;-65
2023/10/24 04:13:59;;;;;;;7.95;2.70;;;;;;;10.45;100.00;96281.00;5042205;28;20041;-65
2023/10/24 04:16:26;;;;;;;6.82;2.78;;;;;;;10.42;100.00;96295.03;5047700;28;20595;-65
2023/10/24 04:18:52;;;;;;;8.38;2.50;;;;;;;10.42;100.00;96300.44;5043817;28;20041;-64
2023/10/24 04:21:19;;;;;;;4.00;2.60;;;;;;;10.43;100.00;96298.56;5044386;28;20646;-66
2023/10/24 04:23:45;;;;;;;8.40;2.65;;;;;;;10.45;100.00;96307.22;5037893;28;20296;-65
2023/10/24 04:26:12;;;;;;;5.68;2.33;;;;;;;10.47;100.00;96305.88;5043098;28;20055;-64
2023/10/24 04:28:39;;;;;;;6.93;2.80;;;;;;;10.43;100.00;96312.09;5044032;28;20086;-66
2023/10/24 04:31:08;;;;;;;5.93;3.15;;;;;;;10.43;100.00;96315.59;5043025;28;20044;-65
2023/10/24 04:33:35;;;;;;;5.38;2.45;;;;;;;10.41;100.00;96326.72;5038563;28;20045;-65
2023/10/24 04:36:01;;;;;;;4.35;2.30;;;;;;;10.36;100.00;96329.41;5048419;28;20040;-65
2023/10/24 04:38:28;;;;;;;5.80;2.42;;;;;;;10.34;100.00;96328.91;5044815;28;20128;-65
2023/10/24 04:40:54;;;;;;;6.55;2.67;;;;;;;10.24;100.00;96339.75;5052464;28;20040;-65
2023/10/24 04:43:21;;;;;;;4.50;2.60;;;;;;;10.16;100.00;96357.34;5053074;28;20047;-66
2023/10/24 04:45:51;;;;;;;5.07;2.17;;;;;;;10.13;100.00;96357.91;5042986;28;20761;-67
2023/10/24 04:48:17;;;;;;;5.85;2.38;;;;;;;10.14;100.00;96359.53;5042985;28;20041;-66
2023/10/24 04:50:44;;;;;;;4.43;2.08;;;;;;;10.15;100.00;96345.72;5052428;28;20040;-65
2023/10/24 04:53:10;;;;;;;6.70;2.60;;;;;;;10.22;100.00;96337.34;5044200;28;20053;-66
2023/10/24 04:55:37;;;;;;;4.63;2.85;;;;;;;10.26;100.00;96327.59;5044238;28;20040;-65
2023/10/24 04:58:04;;;;;;;5.43;3.50;;;;;;;10.32;100.00;96322.16;5051678;28;20102;-67
2023/10/24 05:00:30;;;;;;;7.65;2.72;;;;;;;10.28;100.00;96311.88;5050170;28;20041;-65
2023/10/24 05:02:57;;;;;;;4.88;2.72;;;;;;;10.30;100.00;96291.84;5042598;28;20045;-66
2023/10/24 05:05:23;;;;;;;4.20;2.30;;;;;;;10.30;100.00;96286.44;5044015;28;20033;-66
2023/10/24 05:07:50;;;;;;;5.13;2.83;;;;;;;10.30;100.00;96292.66;5048021;28;20045;-66
2023/10/24 05:10:16;;;;;;;4.70;2.20;;;;;;;10.30;100.00;96283.72;5048684;28;20033;-66
2023/10/24 05:12:43;;;;;;;5.07;2.53;;;;;;;10.30;100.00;96306.19;5043875;28;20059;-65
2023/10/24 05:15:10;;;;;;;4.22;2.17;;;;;;;10.27;100.00;96296.72;5043573;28;20124;-66
2023/10/24 05:17:36;;;;;;;5.35;3.05;;;;;;;10.28;100.00;96300.22;5049337;28;20048;-65
2023/10/24 05:20:07;;;;;;;7.18;3.70;;;;;;;10.26;100.00;96308.66;5052734;28;20037;-65
2023/10/24 05:22:34;;;;;;;6.57;3.85;;;;;;;10.28;100.00;96301.06;5047170;28;20423;-66
2023/10/24 05:25:00;;;;;;;6.22;3.10;;;;;;;10.31;100.00;96288.88;5047681;28;20049;-66
2023/10/24 05:27:27;;;;;;;7.70;4.50;;;;;;;10.31;100.00;96282.66;5040913;28;20040;-65
2023/10/24 05:29:53;;;;;;;7.43;4.13;;;;;;;10.29;100.00;96291.06;5040072;28;20041;-66
2023/10/24 05:32:20;;;;;;;6.10;2.90;;;;;;;10.21;100.00;96278.88;5042340;28;20041;-66
2023/10/24 05:34:47;;;;;;;7.47;3.15;;;;;;;10.21;100.00;96286.22;5047537;28;20044;-65
2023/10/24 05:37:13;;;;;;;5.07;3.30;;;;;;;10.23;100.00;96276.72;5046686;28;20103;-63
2023/10/24 05:39:40;;;;;;;7.40;4.05;;;;;;;10.24;100.00;96285.63;5053410;28;20071;-62
2023/10/24 05:42:06;;;;;;;5.38;2.60;;;;;;;10.25;100.00;96289.97;5047459;28;20055;-67
2023/10/24 05:44:33;;;;;;;8.45;2.95;;;;;;;10.26;100.00;96291.59;5044734;28;20052;-68
2023/10/24 05:46:59;;;;;;;5.93;3.75;;;;;;;10.25;100.00;96285.38;5055869;28;20041;-64
2023/10/24 05:49:26;;;;;;;8.68;3.80;;;;;;;10.26;100.00;96273.47;5054273;28;20690;-65
2023/10/24 05:51:52;;;;;;;6.43;3.85;;;;;;;10.28;100.00;96270.47;5056226;28;20044;-66
2023/10/24 05:54:19;;;;;;;6.35;3.63;;;;;;;10.20;100.00;96269.16;5042474;28;20052;-64
2023/10/24 05:56:45;;;;;;;7.38;3.40;;;;;;;10.10;100.00;96266.50;5046115;28;20045;-65
2023/10/24 05:59:12;;;;;;;6.30;3.65;;;;;;;10.09;100.00;96273.78;5051959;28;20607;-65
2023/10/24 06:01:42;;;;;;;5.30;3.10;;;;;;;10.11;100.00;96295.16;5047221;28;20044;-65
2023/10/24 06:04:08;;;;;;;5.35;3.75;;;;;;;10.11;100.00;96293.28;5054120;28;20044;-65
2023/10/24 06:06:35;;;;;;;8.85;4.20;;;;;;;10.14;100.00;96310.84;5042913;28;20140;-65
2023/10/24 06:09:03;;;;;;;5.03;3.60;;;;;;;10.14;100.00;96300.03;5043125;28;20207;-65
2023/10/24 06:11:29;;;;;;;7.05;3.85;;;;;;;10.15;100.00;96302.44;5047547;28;20045;-65
2023/10/24 06:13:56;;;;;;;7.90;3.67;;;;;;;10.15;100.00;96302.44;5053101;28;20055;-64
2023/10/24 06:16:22;;;;;;;6.30;3.50;;;;;;;10.07;100.00;96294.91;5045044;28;20037;-65
2023/10/24 06:18:49;;;;;;;4.60;2.97;;;;;;;10.10;100.00;96304.38;5043219;28;20056;-66
2023/10/24 06:21:16;;;;;;;6.97;4.00;;;;;;;10.08;100.00;96301.94;5046905;28;20045;-65
2023/10/24 06:23:43;;;;;;;7.10;3.75;;;;;;;10.10;100.00;96309.78;5046865;28;20051;-65
2023/10/24 06:26:14;;;;;;;8.35;3.88;;;;;;;10.09;100.00;96308.13;5048934;28;20037;-65
2023/10/24 06:28:42;;;;;;;5.97;3.35;;;;;;;10.10;100.00;96323.31;5042952;28;20045;-65
2023/10/24 06:31:09;;;;;;;8.77;3.63;;;;;;;10.15;100.00;96326.00;5048131;28;20045;-65
2023/10/24 06:33:36;;;;;;;7.57;3.63;;;;;;;10.01;100.00;96342.78;5053023;28;20103;-66
2023/10/24 06:36:05;;;;;;;5.88;3.60;;;;;;;9.99;100.00;96349.56;5041796;28;20112;-65
2023/10/24 06:38:32;;;;;;;7.95;3.90;;;;;;;10.02;100.00;96367.94;5041340;28;20082;-65
2023/10/24 06:40:58;;;;;;;6.18;4.10;;;;;;;10.04;100.00;96381.19;5044311;28;20086;-65
2023/10/24 06:43:26;;;;;;;9.18;4.65;;;;;;;10.00;100.00;96379.00;5045812;28;20051;-65
2023/10/24 06:45:53;;;;;;;10.00;4.07;;;;;;;10.02;100.00;96384.16;5049282;28;20530;-65
2023/10/24 06:48:20;;;;;;;7.40;4.05;;;;;;;9.91;100.00;96379.84;5053065;28;20083;-65
2023/10/24 06:50:47;;;;;;;7.07;4.00;;;;;;;9.90;100.00;96379.03;5045494;28;20041;-65
2023/10/24 06:53:14;;;;;;;6.25;3.58;;;;;;;9.94;100.00;96399.03;5046609;28;20514;-66
2023/10/24 06:55:41;;;;;;;7.10;3.45;;;;;;;9.96;100.00;96394.19;5049107;28;20079;-65
2023/10/24 06:58:07;;;;;;;9.32;4.75;;;;;;;9.87;100.00;96390.38;5044233;28;20046;-64
2023/10/24 07:00:34;;;;;;;9.70;3.97;;;;;;;9.93;100.00;96404.72;5039266;28;20052;-65
2023/10/24 07:03:00;;;;;;;9.68;5.47;;;;;;;9.94;100.00;96407.16;5046169;28;20045;-66
2023/10/24 07:05:28;;;;;;;7.72;5.00;;;;;;;10.01;100.00;96404.19;5043392;28;20075;-65
2023/10/24 07:07:54;;;;;;;7.80;5.20;;;;;;;10.07;100.00;96386.06;5049250;28;20090;-65
2023/10/24 07:10:21;;;;;;;11.73;4.93;;;;;;;10.13;100.00;96382.25;5045205;28;20637;-65
2023/10/24 07:12:48;;;;;;;7.70;4.72;;;;;;;10.18;100.00;96363.31;5046416;28;20044;-66
2023/10/24 07:15:14;;;;;;;6.68;4.50;;;;;;;10.25;100.00;96363.81;5049039;28;20097;-66
2023/10/24 07:17:42;;;;;;;11.80;4.85;;;;;;;10.19;100.00;96359.53;5047001;28;20083;-65
2023/10/24 07:20:10;;;;;;;7.72;4.28;;;;;;;10.18;100.00;96382.25;5040283;28;20045;-65
2023/10/24 07:22:37;;;;;;;6.50;4.22;;;;;;;10.12;100.00;96383.34;5046009;28;20125;-65
2023/10/24 07:25:04;;;;;;;9.23;4.28;;;;;;;10.16;100.00;96397.94;5048885;28;20571;-65
2023/10/24 07:27:30;;;;;;;7.72;4.88;;;;;;;10.18;100.00;96393.06;5044852;28;20680;-66
2023/10/24 07:29:57;;;;;;;7.32;4.75;;;;;;;10.24;100.00;96399.25;5047832;28;20045;-65
2023/10/24 07:32:24;;;;;;;7.10;4.43;;;;;;;10.28;100.00;96405.75;5044317;28;20048;-64
2023/10/24 07:34:55;;;;;;;9.20;4.28;;;;;;;10.28;100.00;96406.56;5044636;28;20033;-65
2023/10/24 07:37:23;;;;;;;10.70;4.70;;;;;;;10.28;100.00;96414.69;5043636;28;20305;-65
2023/10/24 07:39:50;;;;;;;6.53;4.00;;;;;;;10.34;100.00;96409.25;5038858;28;20033;-65
2023/10/24 07:42:17;;;;;;;8.35;5.38;;;;;;;10.39;100.00;96420.88;5046745;28;20037;-65
2023/10/24 07:44:43;;;;;;;8.15;4.18;;;;;;;10.38;100.00;96404.91;5048322;28;20040;-66
2023/10/24 07:47:10;;;;;;;7.15;4.10;;;;;;;10.33;100.00;96397.63;5049635;28;20033;-65
2023/10/24 07:49:36;;;;;;;8.38;4.22;;;;;;;10.36;100.00;96405.19;5045807;28;20083;-65
2023/10/24 07:52:03;;;;;;;8.48;4.70;;;;;;;10.42;100.00;96416.81;5046217;28;20054;-65
2023/10/24 07:54:30;;;;;;;8.57;4.72;;;;;;;10.42;100.00;96400.56;5041249;28;20045;-65
2023/10/24 07:56:57;;;;;;;9.25;4.82;;;;;;;10.50;100.00;96407.34;5043099;28;20056;-66
2023/10/24 07:59:26;;;;;;;7.38;4.80;;;;;;;10.50;100.00;96400.03;5044810;28;20045;-65
2023/10/24 08:01:53;;;;;;;7.00;4.18;;;;;;;10.55;100.00;96401.94;5053643;28;20456;-64
2023/10/24 08:04:20;;;;;;;7.07;4.57;;;;;;;10.51;100.00;96393.53;5043040;28;20077;-66
2023/10/24 08:06:46;;;;;;;10.02;4.43;;;;;;;10.50;100.00;96410.88;5047411;28;21567;-65
2023/10/24 08:09:13;;;;;;;6.93;3.92;;;;;;;10.50;100.00;96415.47;5044540;28;20749;-65
2023/10/24 08:11:40;;;;;;;6.50;4.43;;;;;;;10.55;100.00;96418.19;5047760;28;20056;-65
2023/10/24 08:14:07;;;;;;;5.90;3.80;;;;;;;10.56;100.00;96416.25;5046121;28;20320;-66
2023/10/24 08:16:33;;;;;;;9.88;4.50;;;;;;;10.59;100.00;96421.13;5041807;28;20064;-64
2023/10/24 08:19:00;;;;;;;7.93;4.47;;;;;;;10.60;100.00;96437.09;5043073;28;20055;-64
2023/10/24 08:21:26;;;;;;;8.80;5.20;;;;;;;10.63;100.00;96438.44;5054616;28;20045;-65
2023/10/24 08:23:54;;;;;;;7.53;4.57;;;;;;;10.57;100.00;96444.97;5044783;28;20049;-65
2023/10/24 08:26:21;;;;;;;11.38;5.97;;;;;;;10.61;100.00;96465.00;5039703;28;20106;-65
2023/10/24 08:28:47;;;;;;;7.13;5.38;;;;;;;10.64;100.00;96464.41;5044074;28;20047;-65
2023/10/24 08:31:14;;;;;;;11.50;6.50;;;;;;;10.64;100.00;96459.00;5045583;28;20049;-65
2023/10/24 08:33:41;;;;;;;12.13;6.20;;;;;;;10.65;100.00;96449.81;5039671;28;20040;-64
2023/10/24 08:36:07;;;;;;;10.23;6.30;;;;;;;10.68;100.00;96454.66;5047382;28;20045;-65
2023/10/24 08:38:34;;;;;;;12.20;6.43;;;;;;;10.72;100.00;96450.31;5044769;28;20053;-64
2023/10/24 08:41:00;;;;;;;8.45;5.63;;;;;;;10.75;100.00;96449.78;5050481;28;20606;-65
2023/10/24 08:43:27;;;;;;;9.02;6.20;;;;;;;10.73;100.00;96433.00;5051157;28;20037;-65
2023/10/24 08:45:54;;;;;;;10.13;5.72;;;;;;;10.77;100.00;96425.94;5042852;28;20644;-64
2023/10/24 08:48:20;;;;;;;9.82;5.88;;;;;;;10.82;100.00;96432.41;5043283;28;20041;-65
2023/10/24 08:50:47;;;;;;;10.45;6.28;;;;;;;10.85;100.00;96424.56;5052248;28;20057;-65
2023/10/24 08:53:15;;;;;;;9.88;5.72;;;;;;;10.91;100.00;96428.06;5037224;28;20137;-66
2023/10/24 08:56:02;;;;;;;7.18;4.68;;;;;;;10.88;100.00;96401.53;5047384;28;20178;-65
2023/10/24 08:58:32;;;;;;;8.77;5.47;;;;;;;10.83;100.00;96383.41;5045875;28;20044;-65
2023/10/24 09:01:00;;;;;;;8.32;5.07;;;;;;;10.89;100.00;96386.91;5047031;28;20052;-65
2023/10/24 09:03:28;;;;;;;8.75;5.60;;;;;;;10.94;100.00;96386.88;5043386;28;20132;-65
2023/10/24 09:05:57;;;;;;;10.52;5.95;;;;;;;11.03;100.00;96408.78;5043443;28;20044;-64
2023/10/24 09:08:24;;;;;;;8.82;5.57;;;;;;;11.08;100.00;96397.91;5039656;28;20438;-66
2023/10/24 09:10:51;;;;;;;10.60;5.50;;;;;;;11.12;100.00;96412.53;5048167;28;20048;-64
2023/10/24 09:13:18;;;;;;;8.70;5.40;;;;;;;11.16;100.00;96432.53;5052274;28;20043;-65
2023/10/24 09:16:04;;;;;;;8.98;5.63;;;;;;;11.17;100.00;96430.66;5049878;28;20044;-65
2023/10/24 09:18:33;;;;;;;8.98;5.05;;;;;;;11.14;100.00;96409.53;5044429;28;20044;-66
2023/10/24 09:21:00;;;;;;;12.63;5.65;;;;;;;11.15;100.00;96422.81;5047047;28;20131;-65
2023/10/24 09:23:26;;;;;;;10.15;4.63;;;;;;;11.17;100.00;96412.47;5042488;28;20542;-64
2023/10/24 09:25:53;;;;;;;10.13;5.38;;;;;;;11.13;100.00;96388.97;5050709;28;20048;-65
2023/10/24 09:28:22;;;;;;;8.48;5.63;;;;;;;11.12;100.00;96385.44;5050319;28;20055;-66
2023/10/24 09:30:49;;;;;;;8.05;5.63;;;;;;;11.04;100.00;96378.72;5046305;28;20048;-65
2023/10/24 09:33:15;;;;;;;7.68;5.28;;;;;;;11.03;100.00;96387.09;5048126;28;20047;-65
2023/10/24 09:35:42;;;;;;;8.23;5.88;;;;;;;10.98;100.00;96400.69;5046824;28;20043;-65
2023/10/24 09:38:22;;;;;;;10.85;5.80;;;;;;;11.02;100.00;96404.47;5047899;28;20052;-65
2023/10/24 09:40:50;;;;;;;9.10;5.75;;;;;;;11.05;100.00;96406.59;5051615;28;20123;-65
2023/10/24 09:43:22;;;;;;;8.82;5.95;;;;;;;11.05;100.00;96410.13;5046420;28;20056;-64
2023/10/24 09:45:52;;;;;;;9.43;6.75;;;;;;;10.99;100.00;96410.41;5055062;28;20041;-66
2023/10/24 09:48:22;;;;;;;7.60;5.95;;;;;;;11.00;100.00;96409.31;5048194;28;20045;-65
2023/10/24 09:50:50;;;;;;;9.73;5.78;;;;;;;11.03;100.00;96423.13;5045785;28;20093;-65
2023/10/24 09:53:18;;;;;;;14.15;5.93;;;;;;;11.08;100.00;96419.59;5048611;28;20036;-64
2023/10/24 09:55:48;;;;;;;9.90;6.18;;;;;;;11.09;100.00;96418.47;5047120;28;20043;-65
2023/10/24 09:58:20;;;;;;;7.63;5.25;;;;;;;11.11;100.00;96424.44;5043047;28;20091;-65
2023/10/24 10:00:47;;;;;;;10.77;6.63;;;;;;;11.15;100.00;96422.81;5044307;28;20118;-65
2023/10/24 10:03:14;;;;;;;10.18;6.05;;;;;;;11.16;100.00;96419.00;5047502;28;20725;-66
2023/10/24 10:05:43;;;;;;;10.07;6.63;;;;;;;11.21;100.00;96417.34;5044839;28;20037;-65
2023/10/24 10:08:13;;;;;;;7.35;5.03;;;;;;;11.24;100.00;96406.75;5042262;28;20076;-65
2023/10/24 10:10:42;;;;;;;10.95;5.40;;;;;;;11.23;100.00;96391.59;5044631;28;21439;-65
2023/10/24 10:13:17;;;;;;;10.70;5.65;;;;;;;11.22;100.00;96402.72;5045404;28;20052;-65
2023/10/24 10:16:02;;;;;;;9.30;5.60;;;;;;;11.26;100.00;96393.75;5047165;28;20067;-66
2023/10/24 10:18:39;;;;;;;9.82;6.57;;;;;;;11.26;100.00;96392.94;5044004;28;20045;-65
2023/10/24 10:21:20;;;;;;;10.73;6.43;;;;;;;11.24;100.00;96381.56;5049936;28;20056;-66
2023/10/24 10:24:11;;;;;;;11.57;6.00;;;;;;;11.31;100.00;96379.34;5046209;28;20106;-65
2023/10/24 10:26:59;;;;;;;;;;;;;;;11.28;100.00;96378.00;5045934;28;20122;-65
2023/10/24 10:29:45;;;;;;;12.10;7.22;;;;;;;11.28;100.00;96369.09;5048243;28;19932;-66
2023/10/24 10:32:35;;;;;;;10.63;6.03;;;;;;;11.32;100.00;96359.31;5039785;28;20045;-65
2023/10/24 10:35:54;;;;;;;10.07;6.00;;;;;;;11.34;100.00;96364.41;5042267;28;20962;-66
2023/10/24 10:38:45;;;;;;;9.38;5.70;;;;;;;11.39;100.00;96372.53;5043688;28;20045;-66
2023/10/24 10:41:24;;;;;;;10.50;6.07;;;;;;;11.39;100.00;96369.81;5054123;28;20541;-65
2023/10/24 10:43:57;;;;;;;9.30;4.97;;;;;;;11.37;100.00;96367.41;5052985;28;20068;-64
2023/10/24 10:46:26;;;;;;;9.38;5.22;;;;;;;11.40;100.00;96360.59;5044304;28;20507;-65
2023/10/24 10:49:02;;;;;;;8.10;5.07;;;;;;;11.43;100.00;96352.69;5044454;28;20661;-64
2023/10/24 10:51:30;;;;;;;8.82;5.45;;;;;;;11.43;100.00;96352.69;5045201;28;20052;-65
2023/10/24 10:54:44;;;;;;;10.70;6.25;;;;;;;11.43;100.00;96341.06;5053680;28;20579;-65
2023/10/24 10:57:16;;;;;;;8.27;5.30;;;;;;;11.43;100.00;96341.06;5047427;28;20076;-65
2023/10/24 11:00:04;;;;;;;10.70;5.40;;;;;;;11.47;100.00;96334.00;5051494;28;20059;-66
2023/10/24 11:02:58;;;;;;;9.02;5.43;;;;;;;11.47;100.00;96328.56;5043484;28;20496;-64
2023/10/24 11:05:36;;;;;;;7.25;5.35;;;;;;;11.49;100.00;96339.91;5048514;28;20040;-65
2023/10/24 11:08:06;;;;;;;9.57;5.22;;;;;;;11.47;100.00;96328.56;5042189;28;20098;-66
2023/10/24 11:10:56;;;;;;;8.82;5.60;;;;;;;11.50;100.00;96336.09;5040735;28;20045;-64
2023/10/24 11:13:53;;;;;;;8.25;5.15;;;;;;;11.49;100.00;96320.94;5049464;28;20097;-65
2023/10/24 11:16:20;;;;;;;6.93;4.70;;;;;;;11.52;100.00;96314.97;5039136;28;20152;-65
2023/10/24 11:19:04;;;;;;;8.48;5.25;;;;;;;11.45;100.00;96314.47;5038240;28;20045;-65
2023/10/24 11:21:31;;;;;;;9.52;5.70;;;;;;;11.43;100.00;96322.88;5046690;28;20090;-65
2023/10/24 11:23:59;;;;;;;8.10;5.25;;;;;;;11.50;100.00;96346.94;5045426;28;20045;-65
2023/10/24 11:26:26;;;;;;;8.45;4.85;;;;;;;11.50;100.00;96338.81;5046561;28;20116;-64
2023/10/24 11:28:54;;;;;;;10.00;5.55;;;;;;;11.50;100.00;96344.25;5047697;28;20498;-65
2023/10/24 11:31:25;;;;;;;7.53;5.05;;;;;;;11.52;100.00;96339.34;5046738;28;20052;-65